sensor_id;sensor_type;location;lat;lon;timestamp;P1;durP1;ratioP1;P2;durP2;ratioP2
10586;SDS011;5341;47.606;7.576;2024-03-08T00:00:51;22.58;;;18.15;;
10586;SDS011;5341;47.606;7.576;2024-03-08T00:03:19;27.15;;;19.17;;
10586;SDS011;5341;47.606;7.576;2024-03-08T00:05:46;24.30;;;18.73;;
10586;SDS011;5341;47.606;7.576;2024-03-08T00:08:13;23.20;;;18.85;;
10586;SDS011;5341;47.606;7.576;2024-03-08T00:10:42;26.10;;;19.52;;
10586;SDS011;5341;47.606;7.576;2024-03-08T00:26:59;26.30;;;20.95;;
10586;SDS011;5341;47.606;7.576;2024-03-08T00:29:27;24.58;;;20.13;;
10586;SDS011;5341;47.606;7.576;2024-03-08T00:31:55;23.85;;;19.58;;
10586;SDS011;5341;47.606;7.576;2024-03-08T00:34:23;25.38;;;19.40;;
10586;SDS011;5341;47.606;7.576;2024-03-08T00:36:50;26.65;;;20.13;;
10586;SDS011;5341;47.606;7.576;2024-03-08T00:39:18;27.25;;;21.38;;
10586;SDS011;5341;47.606;7.576;2024-03-08T00:41:46;25.67;;;21.25;;
10586;SDS011;5341;47.606;7.576;2024-03-08T00:44:16;26.23;;;20.85;;
10586;SDS011;5341;47.606;7.576;2024-03-08T00:46:43;25.42;;;19.77;;
10586;SDS011;5341;47.606;7.576;2024-03-08T00:49:11;26.90;;;21.05;;
10586;SDS011;5341;47.606;7.576;2024-03-08T00:51:38;27.80;;;21.40;;
10586;SDS011;5341;47.606;7.576;2024-03-08T00:54:06;28.15;;;21.27;;
10586;SDS011;5341;47.606;7.576;2024-03-08T00:56:33;26.77;;;20.10;;
10586;SDS011;5341;47.606;7.576;2024-03-08T00:59:01;28.15;;;20.42;;
10586;SDS011;5341;47.606;7.576;2024-03-08T01:01:30;26.63;;;20.45;;
10586;SDS011;5341;47.606;7.576;2024-03-08T01:03:57;24.02;;;19.17;;
10586;SDS011;5341;47.606;7.576;2024-03-08T01:06:25;24.38;;;20.00;;
10586;SDS011;5341;47.606;7.576;2024-03-08T01:08:52;26.13;;;21.52;;
10586;SDS011;5341;47.606;7.576;2024-03-08T01:11:19;27.52;;;21.25;;
10586;SDS011;5341;47.606;7.576;2024-03-08T01:13:47;25.40;;;20.98;;
10586;SDS011;5341;47.606;7.576;2024-03-08T01:16:15;25.98;;;20.42;;
10586;SDS011;5341;47.606;7.576;2024-03-08T01:18:45;25.77;;;20.60;;
10586;SDS011;5341;47.606;7.576;2024-03-08T01:21:12;25.98;;;20.27;;
10586;SDS011;5341;47.606;7.576;2024-03-08T01:23:40;24.90;;;20.08;;
10586;SDS011;5341;47.606;7.576;2024-03-08T01:26:07;26.52;;;20.27;;
10586;SDS011;5341;47.606;7.576;2024-03-08T01:28:35;26.60;;;20.05;;
10586;SDS011;5341;47.606;7.576;2024-03-08T01:31:02;24.38;;;19.77;;
10586;SDS011;5341;47.606;7.576;2024-03-08T01:33:31;26.80;;;20.50;;
10586;SDS011;5341;47.606;7.576;2024-03-08T01:36:00;25.35;;;20.30;;
10586;SDS011;5341;47.606;7.576;2024-03-08T01:38:27;27.30;;;21.00;;
10586;SDS011;5341;47.606;7.576;2024-03-08T01:40:55;26.08;;;20.73;;
10586;SDS011;5341;47.606;7.576;2024-03-08T01:43:25;27.90;;;20.65;;
10586;SDS011;5341;47.606;7.576;2024-03-08T01:45:53;25.00;;;19.75;;
10586;SDS011;5341;47.606;7.576;2024-03-08T01:48:22;26.40;;;19.95;;
10586;SDS011;5341;47.606;7.576;2024-03-08T01:50:50;26.92;;;20.52;;
10586;SDS011;5341;47.606;7.576;2024-03-08T01:53:21;23.63;;;20.20;;
10586;SDS011;5341;47.606;7.576;2024-03-08T01:55:49;30.27;;;21.70;;
10586;SDS011;5341;47.606;7.576;2024-03-08T01:58:18;26.17;;;20.27;;
10586;SDS011;5341;47.606;7.576;2024-03-08T02:00:47;25.30;;;20.23;;
10586;SDS011;5341;47.606;7.576;2024-03-08T02:03:16;26.00;;;19.85;;
10586;SDS011;5341;47.606;7.576;2024-03-08T02:05:43;28.17;;;20.60;;
10586;SDS011;5341;47.606;7.576;2024-03-08T02:08:10;24.40;;;19.95;;
10586;SDS011;5341;47.606;7.576;2024-03-08T02:10:41;26.15;;;20.17;;
10586;SDS011;5341;47.606;7.576;2024-03-08T02:13:08;24.80;;;20.05;;
10586;SDS011;5341;47.606;7.576;2024-03-08T02:15:49;25.45;;;20.23;;
10586;SDS011;5341;47.606;7.576;2024-03-08T02:18:17;26.38;;;19.45;;
10586;SDS011;5341;47.606;7.576;2024-03-08T02:20:46;22.40;;;18.48;;
10586;SDS011;5341;47.606;7.576;2024-03-08T02:23:16;25.50;;;19.17;;
10586;SDS011;5341;47.606;7.576;2024-03-08T02:25:43;25.30;;;19.92;;
10586;SDS011;5341;47.606;7.576;2024-03-08T02:28:11;27.02;;;19.73;;
10586;SDS011;5341;47.606;7.576;2024-03-08T02:30:39;25.50;;;19.98;;
10586;SDS011;5341;47.606;7.576;2024-03-08T02:33:07;25.48;;;20.55;;
10586;SDS011;5341;47.606;7.576;2024-03-08T02:35:35;24.00;;;19.35;;
10586;SDS011;5341;47.606;7.576;2024-03-08T02:38:04;24.75;;;19.77;;
10586;SDS011;5341;47.606;7.576;2024-03-08T02:40:32;25.92;;;20.27;;
10586;SDS011;5341;47.606;7.576;2024-03-08T02:42:59;24.25;;;19.90;;
10586;SDS011;5341;47.606;7.576;2024-03-08T02:45:27;27.48;;;20.33;;
10586;SDS011;5341;47.606;7.576;2024-03-08T02:47:55;26.13;;;19.77;;
10586;SDS011;5341;47.606;7.576;2024-03-08T02:50:22;23.42;;;19.77;;
10586;SDS011;5341;47.606;7.576;2024-03-08T02:52:51;24.65;;;19.35;;
10586;SDS011;5341;47.606;7.576;2024-03-08T02:55:19;25.50;;;19.77;;
10586;SDS011;5341;47.606;7.576;2024-03-08T02:57:47;24.75;;;19.02;;
10586;SDS011;5341;47.606;7.576;2024-03-08T03:00:14;27.30;;;20.25;;
10586;SDS011;5341;47.606;7.576;2024-03-08T03:02:44;26.45;;;20.00;;
10586;SDS011;5341;47.606;7.576;2024-03-08T03:05:12;26.75;;;19.38;;
10586;SDS011;5341;47.606;7.576;2024-03-08T03:07:39;25.40;;;19.13;;
10586;SDS011;5341;47.606;7.576;2024-03-08T03:10:07;23.35;;;19.65;;
10586;SDS011;5341;47.606;7.576;2024-03-08T03:12:36;23.15;;;19.05;;
10586;SDS011;5341;47.606;7.576;2024-03-08T03:15:04;27.75;;;20.90;;
10586;SDS011;5341;47.606;7.576;2024-03-08T03:17:32;24.90;;;19.73;;
10586;SDS011;5341;47.606;7.576;2024-03-08T03:20:00;27.75;;;19.63;;
10586;SDS011;5341;47.606;7.576;2024-03-08T03:22:30;24.10;;;19.25;;
10586;SDS011;5341;47.606;7.576;2024-03-08T03:24:57;26.55;;;20.02;;
10586;SDS011;5341;47.606;7.576;2024-03-08T03:27:28;25.00;;;18.15;;
10586;SDS011;5341;47.606;7.576;2024-03-08T03:29:57;25.65;;;19.65;;
10586;SDS011;5341;47.606;7.576;2024-03-08T03:32:32;22.85;;;18.40;;
10586;SDS011;5341;47.606;7.576;2024-03-08T03:35:02;22.35;;;17.88;;
10586;SDS011;5341;47.606;7.576;2024-03-08T03:37:31;24.80;;;19.35;;
10586;SDS011;5341;47.606;7.576;2024-03-08T03:39:59;22.95;;;18.20;;
10586;SDS011;5341;47.606;7.576;2024-03-08T03:42:27;24.70;;;18.30;;
10586;SDS011;5341;47.606;7.576;2024-03-08T03:44:54;22.90;;;17.63;;
10586;SDS011;5341;47.606;7.576;2024-03-08T03:47:23;21.17;;;17.30;;
10586;SDS011;5341;47.606;7.576;2024-03-08T03:49:52;22.13;;;17.30;;
10586;SDS011;5341;47.606;7.576;2024-03-08T03:52:20;23.98;;;18.33;;
10586;SDS011;5341;47.606;7.576;2024-03-08T03:54:47;24.02;;;17.80;;
10586;SDS011;5341;47.606;7.576;2024-03-08T03:57:14;23.63;;;17.67;;
10586;SDS011;5341;47.606;7.576;2024-03-08T03:59:43;24.90;;;18.55;;
10586;SDS011;5341;47.606;7.576;2024-03-08T04:02:10;20.98;;;16.63;;
10586;SDS011;5341;47.606;7.576;2024-03-08T04:04:39;21.50;;;17.45;;
10586;SDS011;5341;47.606;7.576;2024-03-08T04:07:06;21.25;;;16.73;;
10586;SDS011;5341;47.606;7.576;2024-03-08T04:09:35;20.65;;;16.85;;
10586;SDS011;5341;47.606;7.576;2024-03-08T04:12:02;21.70;;;16.58;;
10586;SDS011;5341;47.606;7.576;2024-03-08T04:14:30;20.13;;;16.35;;
10586;SDS011;5341;47.606;7.576;2024-03-08T04:17:00;20.05;;;16.92;;
10586;SDS011;5341;47.606;7.576;2024-03-08T04:19:27;21.15;;;16.98;;
10586;SDS011;5341;47.606;7.576;2024-03-08T04:21:56;22.33;;;17.88;;
10586;SDS011;5341;47.606;7.576;2024-03-08T04:24:24;20.42;;;15.95;;
10586;SDS011;5341;47.606;7.576;2024-03-08T04:26:51;19.70;;;16.15;;
10586;SDS011;5341;47.606;7.576;2024-03-08T04:29:19;20.85;;;16.50;;
10586;SDS011;5341;47.606;7.576;2024-03-08T04:31:47;21.42;;;16.55;;
10586;SDS011;5341;47.606;7.576;2024-03-08T04:34:14;20.95;;;16.65;;
10586;SDS011;5341;47.606;7.576;2024-03-08T04:36:42;20.70;;;16.95;;
10586;SDS011;5341;47.606;7.576;2024-03-08T04:39:11;22.83;;;17.95;;
10586;SDS011;5341;47.606;7.576;2024-03-08T04:41:38;23.23;;;18.92;;
10586;SDS011;5341;47.606;7.576;2024-03-08T04:44:06;26.55;;;20.13;;
10586;SDS011;5341;47.606;7.576;2024-03-08T04:46:34;24.52;;;19.20;;
10586;SDS011;5341;47.606;7.576;2024-03-08T04:49:02;27.15;;;20.77;;
10586;SDS011;5341;47.606;7.576;2024-03-08T04:51:30;28.02;;;20.60;;
10586;SDS011;5341;47.606;7.576;2024-03-08T04:53:57;27.45;;;20.85;;
10586;SDS011;5341;47.606;7.576;2024-03-08T04:56:26;26.92;;;20.17;;
10586;SDS011;5341;47.606;7.576;2024-03-08T04:58:54;27.13;;;20.17;;
10586;SDS011;5341;47.606;7.576;2024-03-08T05:01:21;28.15;;;21.08;;
10586;SDS011;5341;47.606;7.576;2024-03-08T05:03:48;27.20;;;20.48;;
10586;SDS011;5341;47.606;7.576;2024-03-08T05:06:16;27.48;;;19.77;;
10586;SDS011;5341;47.606;7.576;2024-03-08T05:08:46;28.70;;;21.13;;
10586;SDS011;5341;47.606;7.576;2024-03-08T05:11:13;25.25;;;19.70;;
10586;SDS011;5341;47.606;7.576;2024-03-08T05:13:42;27.75;;;20.45;;
10586;SDS011;5341;47.606;7.576;2024-03-08T05:16:10;27.05;;;20.08;;
10586;SDS011;5341;47.606;7.576;2024-03-08T05:18:40;25.48;;;19.40;;
10586;SDS011;5341;47.606;7.576;2024-03-08T05:21:08;26.98;;;20.02;;
10586;SDS011;5341;47.606;7.576;2024-03-08T05:23:36;25.52;;;19.75;;
10586;SDS011;5341;47.606;7.576;2024-03-08T05:26:04;27.58;;;20.08;;
10586;SDS011;5341;47.606;7.576;2024-03-08T05:28:31;26.23;;;19.23;;
10586;SDS011;5341;47.606;7.576;2024-03-08T05:31:00;24.73;;;19.60;;
10586;SDS011;5341;47.606;7.576;2024-03-08T05:33:27;23.35;;;18.45;;
10586;SDS011;5341;47.606;7.576;2024-03-08T05:35:54;24.15;;;19.02;;
10586;SDS011;5341;47.606;7.576;2024-03-08T05:38:21;24.17;;;18.73;;
10586;SDS011;5341;47.606;7.576;2024-03-08T05:40:49;26.95;;;19.02;;
10586;SDS011;5341;47.606;7.576;2024-03-08T05:43:17;23.33;;;18.60;;
10586;SDS011;5341;47.606;7.576;2024-03-08T05:45:44;23.48;;;18.35;;
10586;SDS011;5341;47.606;7.576;2024-03-08T05:48:13;24.20;;;19.00;;
10586;SDS011;5341;47.606;7.576;2024-03-08T05:50:41;25.05;;;18.23;;
10586;SDS011;5341;47.606;7.576;2024-03-08T05:53:10;24.52;;;18.77;;
10586;SDS011;5341;47.606;7.576;2024-03-08T05:55:38;21.10;;;17.30;;
10586;SDS011;5341;47.606;7.576;2024-03-08T05:58:05;22.92;;;17.85;;
10586;SDS011;5341;47.606;7.576;2024-03-08T06:00:34;25.35;;;18.65;;
10586;SDS011;5341;47.606;7.576;2024-03-08T06:03:02;23.67;;;17.48;;
10586;SDS011;5341;47.606;7.576;2024-03-08T06:05:31;23.83;;;18.25;;
10586;SDS011;5341;47.606;7.576;2024-03-08T06:07:58;23.10;;;17.83;;
10586;SDS011;5341;47.606;7.576;2024-03-08T06:10:26;23.63;;;18.38;;
10586;SDS011;5341;47.606;7.576;2024-03-08T06:12:53;22.98;;;18.23;;
10586;SDS011;5341;47.606;7.576;2024-03-08T06:15:21;24.27;;;18.20;;
10586;SDS011;5341;47.606;7.576;2024-03-08T06:17:48;21.67;;;17.17;;
10586;SDS011;5341;47.606;7.576;2024-03-08T06:20:18;22.80;;;17.35;;
10586;SDS011;5341;47.606;7.576;2024-03-08T06:22:47;21.65;;;17.13;;
10586;SDS011;5341;47.606;7.576;2024-03-08T06:25:14;23.83;;;17.52;;
10586;SDS011;5341;47.606;7.576;2024-03-08T06:27:42;22.05;;;17.92;;
10586;SDS011;5341;47.606;7.576;2024-03-08T06:30:11;24.20;;;17.80;;
10586;SDS011;5341;47.606;7.576;2024-03-08T06:32:41;21.10;;;16.98;;
10586;SDS011;5341;47.606;7.576;2024-03-08T06:35:08;19.30;;;15.85;;
10586;SDS011;5341;47.606;7.576;2024-03-08T06:37:36;20.92;;;16.30;;
10586;SDS011;5341;47.606;7.576;2024-03-08T06:40:06;22.13;;;16.60;;
10586;SDS011;5341;47.606;7.576;2024-03-08T06:42:39;21.33;;;16.10;;
10586;SDS011;5341;47.606;7.576;2024-03-08T06:45:07;19.80;;;15.63;;
10586;SDS011;5341;47.606;7.576;2024-03-08T06:47:35;22.50;;;16.98;;
10586;SDS011;5341;47.606;7.576;2024-03-08T06:50:03;21.63;;;16.95;;
10586;SDS011;5341;47.606;7.576;2024-03-08T06:52:31;24.25;;;16.90;;
10586;SDS011;5341;47.606;7.576;2024-03-08T06:54:58;20.02;;;16.33;;
10586;SDS011;5341;47.606;7.576;2024-03-08T06:57:28;20.50;;;16.27;;
10586;SDS011;5341;47.606;7.576;2024-03-08T06:59:56;20.98;;;17.08;;
10586;SDS011;5341;47.606;7.576;2024-03-08T07:02:23;21.25;;;16.73;;
10586;SDS011;5341;47.606;7.576;2024-03-08T07:04:51;22.85;;;17.20;;
10586;SDS011;5341;47.606;7.576;2024-03-08T07:07:18;21.48;;;16.38;;
10586;SDS011;5341;47.606;7.576;2024-03-08T07:09:46;21.10;;;16.70;;
10586;SDS011;5341;47.606;7.576;2024-03-08T07:12:14;22.95;;;17.05;;
10586;SDS011;5341;47.606;7.576;2024-03-08T07:14:44;21.42;;;17.00;;
10586;SDS011;5341;47.606;7.576;2024-03-08T07:17:11;22.42;;;16.90;;
10586;SDS011;5341;47.606;7.576;2024-03-08T07:19:39;21.75;;;16.52;;
10586;SDS011;5341;47.606;7.576;2024-03-08T07:22:06;23.20;;;16.67;;
10586;SDS011;5341;47.606;7.576;2024-03-08T07:24:34;21.35;;;16.48;;
10586;SDS011;5341;47.606;7.576;2024-03-08T07:27:21;21.85;;;16.70;;
10586;SDS011;5341;47.606;7.576;2024-03-08T07:29:50;21.23;;;16.60;;
10586;SDS011;5341;47.606;7.576;2024-03-08T07:32:17;22.15;;;17.38;;
10586;SDS011;5341;47.606;7.576;2024-03-08T07:34:47;24.00;;;17.42;;
10586;SDS011;5341;47.606;7.576;2024-03-08T07:37:16;20.58;;;16.88;;
10586;SDS011;5341;47.606;7.576;2024-03-08T07:39:44;20.65;;;16.85;;
10586;SDS011;5341;47.606;7.576;2024-03-08T07:42:11;21.27;;;16.42;;
10586;SDS011;5341;47.606;7.576;2024-03-08T07:44:39;24.50;;;16.15;;
10586;SDS011;5341;47.606;7.576;2024-03-08T07:47:08;20.77;;;15.90;;
10586;SDS011;5341;47.606;7.576;2024-03-08T07:49:35;22.35;;;16.67;;
10586;SDS011;5341;47.606;7.576;2024-03-08T07:52:03;21.52;;;15.75;;
10586;SDS011;5341;47.606;7.576;2024-03-08T07:54:32;20.40;;;15.10;;
10586;SDS011;5341;47.606;7.576;2024-03-08T07:57:00;20.55;;;15.82;;
10586;SDS011;5341;47.606;7.576;2024-03-08T07:59:29;21.27;;;15.75;;
10586;SDS011;5341;47.606;7.576;2024-03-08T08:01:57;21.20;;;15.98;;
10586;SDS011;5341;47.606;7.576;2024-03-08T08:04:26;21.80;;;16.13;;
10586;SDS011;5341;47.606;7.576;2024-03-08T08:06:53;19.30;;;15.40;;
10586;SDS011;5341;47.606;7.576;2024-03-08T08:09:21;20.40;;;15.55;;
10586;SDS011;5341;47.606;7.576;2024-03-08T08:11:59;18.98;;;15.88;;
10586;SDS011;5341;47.606;7.576;2024-03-08T08:14:28;20.77;;;16.00;;
10586;SDS011;5341;47.606;7.576;2024-03-08T08:16:56;20.58;;;16.48;;
10586;SDS011;5341;47.606;7.576;2024-03-08T08:19:27;20.48;;;15.73;;
10586;SDS011;5341;47.606;7.576;2024-03-08T08:21:54;22.38;;;16.98;;
10586;SDS011;5341;47.606;7.576;2024-03-08T08:24:22;21.55;;;17.08;;
10586;SDS011;5341;47.606;7.576;2024-03-08T08:26:50;22.63;;;17.48;;
10586;SDS011;5341;47.606;7.576;2024-03-08T08:29:18;22.25;;;16.17;;
10586;SDS011;5341;47.606;7.576;2024-03-08T08:31:45;20.63;;;16.17;;
10586;SDS011;5341;47.606;7.576;2024-03-08T08:34:15;22.17;;;16.13;;
10586;SDS011;5341;47.606;7.576;2024-03-08T08:36:45;22.35;;;16.50;;
10586;SDS011;5341;47.606;7.576;2024-03-08T08:39:13;18.80;;;15.02;;
10586;SDS011;5341;47.606;7.576;2024-03-08T08:41:42;20.80;;;15.57;;
10586;SDS011;5341;47.606;7.576;2024-03-08T08:44:09;22.70;;;15.43;;
10586;SDS011;5341;47.606;7.576;2024-03-08T08:46:37;22.02;;;17.13;;
10586;SDS011;5341;47.606;7.576;2024-03-08T08:49:05;22.90;;;16.00;;
10586;SDS011;5341;47.606;7.576;2024-03-08T08:51:35;22.25;;;16.58;;
10586;SDS011;5341;47.606;7.576;2024-03-08T08:54:04;20.30;;;16.40;;
10586;SDS011;5341;47.606;7.576;2024-03-08T08:56:32;21.45;;;16.27;;
10586;SDS011;5341;47.606;7.576;2024-03-08T08:59:00;20.48;;;15.75;;
10586;SDS011;5341;47.606;7.576;2024-03-08T09:01:30;19.35;;;15.77;;
10586;SDS011;5341;47.606;7.576;2024-03-08T09:03:58;19.35;;;14.95;;
10586;SDS011;5341;47.606;7.576;2024-03-08T09:06:25;20.80;;;15.52;;
10586;SDS011;5341;47.606;7.576;2024-03-08T09:08:53;20.92;;;16.45;;
10586;SDS011;5341;47.606;7.576;2024-03-08T09:11:23;21.23;;;15.10;;
10586;SDS011;5341;47.606;7.576;2024-03-08T09:13:50;23.80;;;15.90;;
10586;SDS011;5341;47.606;7.576;2024-03-08T09:16:18;21.92;;;15.07;;
10586;SDS011;5341;47.606;7.576;2024-03-08T09:18:46;19.17;;;15.48;;
10586;SDS011;5341;47.606;7.576;2024-03-08T09:21:13;19.98;;;15.18;;
10586;SDS011;5341;47.606;7.576;2024-03-08T09:23:41;18.73;;;15.00;;
10586;SDS011;5341;47.606;7.576;2024-03-08T09:26:10;20.20;;;15.15;;
10586;SDS011;5341;47.606;7.576;2024-03-08T09:28:39;21.48;;;15.70;;
10586;SDS011;5341;47.606;7.576;2024-03-08T09:31:07;18.85;;;15.30;;
10586;SDS011;5341;47.606;7.576;2024-03-08T09:33:37;21.90;;;16.27;;
10586;SDS011;5341;47.606;7.576;2024-03-08T09:36:05;18.95;;;14.60;;
10586;SDS011;5341;47.606;7.576;2024-03-08T09:38:33;20.88;;;15.65;;
10586;SDS011;5341;47.606;7.576;2024-03-08T09:41:01;19.63;;;15.38;;
10586;SDS011;5341;47.606;7.576;2024-03-08T09:43:29;18.50;;;15.52;;
10586;SDS011;5341;47.606;7.576;2024-03-08T09:45:59;20.42;;;15.88;;
10586;SDS011;5341;47.606;7.576;2024-03-08T09:48:26;19.52;;;15.63;;
10586;SDS011;5341;47.606;7.576;2024-03-08T09:50:54;18.88;;;15.63;;
10586;SDS011;5341;47.606;7.576;2024-03-08T09:53:22;19.50;;;15.70;;
10586;SDS011;5341;47.606;7.576;2024-03-08T09:55:49;20.02;;;16.58;;
10586;SDS011;5341;47.606;7.576;2024-03-08T09:58:17;20.85;;;15.27;;
10586;SDS011;5341;47.606;7.576;2024-03-08T10:01:00;19.50;;;15.02;;
10586;SDS011;5341;47.606;7.576;2024-03-08T10:03:28;19.63;;;15.27;;
10586;SDS011;5341;47.606;7.576;2024-03-08T10:05:55;19.27;;;15.10;;
10586;SDS011;5341;47.606;7.576;2024-03-08T10:08:25;20.83;;;15.80;;
10586;SDS011;5341;47.606;7.576;2024-03-08T10:10:54;19.88;;;15.93;;
10586;SDS011;5341;47.606;7.576;2024-03-08T10:13:23;20.05;;;14.98;;
10586;SDS011;5341;47.606;7.576;2024-03-08T10:15:52;18.92;;;15.30;;
10586;SDS011;5341;47.606;7.576;2024-03-08T10:18:21;20.27;;;15.85;;
10586;SDS011;5341;47.606;7.576;2024-03-08T10:21:01;17.85;;;14.45;;
10586;SDS011;5341;47.606;7.576;2024-03-08T10:23:30;19.55;;;15.60;;
10586;SDS011;5341;47.606;7.576;2024-03-08T10:26:09;20.52;;;14.65;;
10586;SDS011;5341;47.606;7.576;2024-03-08T10:28:36;17.05;;;14.40;;
10586;SDS011;5341;47.606;7.576;2024-03-08T10:31:03;18.77;;;15.38;;
10586;SDS011;5341;47.606;7.576;2024-03-08T10:33:32;17.08;;;14.13;;
10586;SDS011;5341;47.606;7.576;2024-03-08T10:36:00;18.08;;;15.10;;
10586;SDS011;5341;47.606;7.576;2024-03-08T10:38:29;16.92;;;13.80;;
10586;SDS011;5341;47.606;7.576;2024-03-08T10:40:59;17.83;;;14.63;;
10586;SDS011;5341;47.606;7.576;2024-03-08T10:43:31;19.75;;;13.98;;
10586;SDS011;5341;47.606;7.576;2024-03-08T10:46:06;18.63;;;14.10;;
10586;SDS011;5341;47.606;7.576;2024-03-08T10:48:45;16.58;;;13.60;;
10586;SDS011;5341;47.606;7.576;2024-03-08T10:51:16;16.58;;;13.52;;
10586;SDS011;5341;47.606;7.576;2024-03-08T10:53:46;16.10;;;13.20;;
10586;SDS011;5341;47.606;7.576;2024-03-08T10:56:16;16.95;;;13.60;;
10586;SDS011;5341;47.606;7.576;2024-03-08T10:58:44;19.05;;;14.30;;
10586;SDS011;5341;47.606;7.576;2024-03-08T11:01:12;18.77;;;13.57;;
10586;SDS011;5341;47.606;7.576;2024-03-08T11:03:43;15.90;;;13.45;;
10586;SDS011;5341;47.606;7.576;2024-03-08T11:06:15;16.88;;;13.63;;
10586;SDS011;5341;47.606;7.576;2024-03-08T11:08:43;16.95;;;13.95;;
10586;SDS011;5341;47.606;7.576;2024-03-08T11:11:24;17.13;;;13.48;;
10586;SDS011;5341;47.606;7.576;2024-03-08T11:14:03;15.85;;;12.90;;
10586;SDS011;5341;47.606;7.576;2024-03-08T11:16:37;17.67;;;12.68;;
10586;SDS011;5341;47.606;7.576;2024-03-08T11:22:04;17.63;;;12.32;;
10586;SDS011;5341;47.606;7.576;2024-03-08T11:24:36;17.02;;;13.77;;
10586;SDS011;5341;47.606;7.576;2024-03-08T11:27:07;16.38;;;13.07;;
10586;SDS011;5341;47.606;7.576;2024-03-08T11:29:37;17.75;;;13.18;;
10586;SDS011;5341;47.606;7.576;2024-03-08T11:32:06;17.08;;;13.15;;
10586;SDS011;5341;47.606;7.576;2024-03-08T11:34:35;15.35;;;12.40;;
10586;SDS011;5341;47.606;7.576;2024-03-08T11:37:08;16.65;;;12.18;;
10586;SDS011;5341;47.606;7.576;2024-03-08T11:39:41;15.48;;;12.88;;
10586;SDS011;5341;47.606;7.576;2024-03-08T11:42:15;18.52;;;12.80;;
10586;SDS011;5341;47.606;7.576;2024-03-08T11:44:44;16.95;;;12.57;;
10586;SDS011;5341;47.606;7.576;2024-03-08T11:47:11;15.30;;;12.68;;
10586;SDS011;5341;47.606;7.576;2024-03-08T11:49:40;13.90;;;12.13;;
10586;SDS011;5341;47.606;7.576;2024-03-08T11:52:12;16.15;;;13.18;;
10586;SDS011;5341;47.606;7.576;2024-03-08T11:54:40;17.95;;;12.55;;
10586;SDS011;5341;47.606;7.576;2024-03-08T11:57:08;15.70;;;12.40;;
10586;SDS011;5341;47.606;7.576;2024-03-08T11:59:36;14.65;;;12.25;;
10586;SDS011;5341;47.606;7.576;2024-03-08T12:02:04;16.48;;;12.98;;
10586;SDS011;5341;47.606;7.576;2024-03-08T12:04:32;16.05;;;13.23;;
10586;SDS011;5341;47.606;7.576;2024-03-08T12:07:01;15.50;;;12.88;;
10586;SDS011;5341;47.606;7.576;2024-03-08T12:09:35;15.23;;;13.13;;
10586;SDS011;5341;47.606;7.576;2024-03-08T12:12:03;14.52;;;12.10;;
10586;SDS011;5341;47.606;7.576;2024-03-08T12:14:33;15.63;;;12.10;;
10586;SDS011;5341;47.606;7.576;2024-03-08T12:17:02;15.77;;;12.60;;
10586;SDS011;5341;47.606;7.576;2024-03-08T12:19:31;17.58;;;12.50;;
10586;SDS011;5341;47.606;7.576;2024-03-08T12:22:06;15.55;;;12.85;;
10586;SDS011;5341;47.606;7.576;2024-03-08T12:24:37;16.27;;;12.40;;
10586;SDS011;5341;47.606;7.576;2024-03-08T12:27:17;14.15;;;12.25;;
10586;SDS011;5341;47.606;7.576;2024-03-08T12:29:45;14.18;;;11.95;;
10586;SDS011;5341;47.606;7.576;2024-03-08T12:32:13;14.50;;;11.80;;
10586;SDS011;5341;47.606;7.576;2024-03-08T12:34:40;13.73;;;11.07;;
10586;SDS011;5341;47.606;7.576;2024-03-08T12:37:07;13.75;;;11.60;;
10586;SDS011;5341;47.606;7.576;2024-03-08T12:39:40;12.75;;;11.32;;
10586;SDS011;5341;47.606;7.576;2024-03-08T12:42:12;14.18;;;12.00;;
10586;SDS011;5341;47.606;7.576;2024-03-08T12:44:39;15.32;;;11.77;;
10586;SDS011;5341;47.606;7.576;2024-03-08T12:47:08;13.40;;;11.23;;
10586;SDS011;5341;47.606;7.576;2024-03-08T12:49:36;16.35;;;11.43;;
10586;SDS011;5341;47.606;7.576;2024-03-08T12:52:08;14.23;;;11.55;;
10586;SDS011;5341;47.606;7.576;2024-03-08T12:54:37;14.90;;;11.68;;
10586;SDS011;5341;47.606;7.576;2024-03-08T12:57:07;13.82;;;11.70;;
10586;SDS011;5341;47.606;7.576;2024-03-08T12:59:34;15.60;;;12.48;;
10586;SDS011;5341;47.606;7.576;2024-03-08T13:02:01;16.15;;;11.93;;
10586;SDS011;5341;47.606;7.576;2024-03-08T13:04:31;14.35;;;10.88;;
10586;SDS011;5341;47.606;7.576;2024-03-08T13:06:58;13.55;;;10.93;;
10586;SDS011;5341;47.606;7.576;2024-03-08T13:09:27;12.70;;;10.70;;
10586;SDS011;5341;47.606;7.576;2024-03-08T13:11:55;16.60;;;11.68;;
10586;SDS011;5341;47.606;7.576;2024-03-08T13:14:26;17.98;;;12.05;;
10586;SDS011;5341;47.606;7.576;2024-03-08T13:16:57;11.93;;;10.18;;
10586;SDS011;5341;47.606;7.576;2024-03-08T13:19:25;13.93;;;11.60;;
10586;SDS011;5341;47.606;7.576;2024-03-08T13:21:53;13.80;;;11.65;;
10586;SDS011;5341;47.606;7.576;2024-03-08T13:24:22;13.80;;;10.75;;
10586;SDS011;5341;47.606;7.576;2024-03-08T13:26:50;12.35;;;11.02;;
10586;SDS011;5341;47.606;7.576;2024-03-08T13:29:19;13.48;;;10.80;;
10586;SDS011;5341;47.606;7.576;2024-03-08T13:31:46;11.88;;;9.82;;
10586;SDS011;5341;47.606;7.576;2024-03-08T13:34:17;12.55;;;10.55;;
10586;SDS011;5341;47.606;7.576;2024-03-08T13:36:44;13.60;;;11.05;;
10586;SDS011;5341;47.606;7.576;2024-03-08T13:39:12;13.55;;;11.30;;
10586;SDS011;5341;47.606;7.576;2024-03-08T13:41:41;13.45;;;10.95;;
10586;SDS011;5341;47.606;7.576;2024-03-08T13:44:10;13.75;;;11.00;;
10586;SDS011;5341;47.606;7.576;2024-03-08T13:46:38;13.18;;;10.43;;
10586;SDS011;5341;47.606;7.576;2024-03-08T13:49:07;12.57;;;11.20;;
10586;SDS011;5341;47.606;7.576;2024-03-08T13:51:36;12.20;;;10.10;;
10586;SDS011;5341;47.606;7.576;2024-03-08T13:54:04;12.02;;;9.95;;
10586;SDS011;5341;47.606;7.576;2024-03-08T13:56:32;12.65;;;11.02;;
10586;SDS011;5341;47.606;7.576;2024-03-08T13:59:00;14.10;;;10.07;;
10586;SDS011;5341;47.606;7.576;2024-03-08T14:01:29;11.95;;;10.07;;
10586;SDS011;5341;47.606;7.576;2024-03-08T14:03:57;13.30;;;10.05;;
10586;SDS011;5341;47.606;7.576;2024-03-08T14:06:25;13.02;;;10.10;;
10586;SDS011;5341;47.606;7.576;2024-03-08T14:08:53;12.13;;;10.05;;
10586;SDS011;5341;47.606;7.576;2024-03-08T14:11:23;14.85;;;9.98;;
10586;SDS011;5341;47.606;7.576;2024-03-08T14:13:53;14.20;;;10.80;;
10586;SDS011;5341;47.606;7.576;2024-03-08T14:16:21;13.27;;;10.50;;
10586;SDS011;5341;47.606;7.576;2024-03-08T14:18:48;13.63;;;10.18;;
10586;SDS011;5341;47.606;7.576;2024-03-08T14:21:17;12.80;;;10.20;;
10586;SDS011;5341;47.606;7.576;2024-03-08T14:23:44;10.88;;;9.75;;
10586;SDS011;5341;47.606;7.576;2024-03-08T14:26:14;11.38;;;9.95;;
10586;SDS011;5341;47.606;7.576;2024-03-08T14:28:42;12.05;;;10.75;;
10586;SDS011;5341;47.606;7.576;2024-03-08T14:31:10;11.13;;;9.93;;
10586;SDS011;5341;47.606;7.576;2024-03-08T14:33:38;12.00;;;9.82;;
10586;SDS011;5341;47.606;7.576;2024-03-08T14:36:07;11.73;;;9.70;;
10586;SDS011;5341;47.606;7.576;2024-03-08T14:38:40;11.77;;;9.80;;
10586;SDS011;5341;47.606;7.576;2024-03-08T14:41:07;12.25;;;10.18;;
10586;SDS011;5341;47.606;7.576;2024-03-08T14:43:34;11.40;;;9.50;;
10586;SDS011;5341;47.606;7.576;2024-03-08T14:46:02;13.20;;;9.93;;
10586;SDS011;5341;47.606;7.576;2024-03-08T14:48:29;11.70;;;9.68;;
10586;SDS011;5341;47.606;7.576;2024-03-08T14:50:57;12.70;;;9.40;;
10586;SDS011;5341;47.606;7.576;2024-03-08T14:53:25;13.93;;;9.98;;
10586;SDS011;5341;47.606;7.576;2024-03-08T14:55:54;12.02;;;10.02;;
10586;SDS011;5341;47.606;7.576;2024-03-08T14:58:22;11.88;;;9.30;;
10586;SDS011;5341;47.606;7.576;2024-03-08T15:00:50;12.80;;;9.00;;